Mitilini, Greece
Current Conditions -  °F | °C
As of 6:50 PM on Thursday 30 Oct 2014 (Local Time) from LGMT Reporting Station
Broken Clouds Broken Clouds  
Wind Chill: 61°   Ceiling: 8000
Heat Index: 61°   Visibility: 6mi
Dew Point: 54°   Wind: 7mph
Humidity: 77%   Direction: 300°WNW
Pressure: 30"   Gusts: NA
Location:  39.11°N, 26.55°E
Report Text: LGMT 301550Z 30006KT 9999 FEW025 BKN080 16/12 Q1016
Loading
Personal Weather Stations






























Interactive Weather Map New forecast layout! Learn more

10-Day Weather Forecast

Advertisements
Track Severe Weather on mobile